Terminal Aerodrome Forecast
Issued by NWS

Home | Current Version | Previous Version | Text Only | Print | Product List | Glossary On
Versions: 1 2 3 4 5 6 7 8 9 10 11 12 13 14 15 16 17 18 19 20 21 22
882
FTUS43 KEAX 161138 CCA
TAFMKC
TAF COR
KMKC 161138Z 1612/1712 07010KT 3SM -RA BR OVC004
     FM161400 18006KT 6SM BR VCSH OVC015
     FM162100 18006KT P6SM -SHRA OVC008
     FM170200 27006KT 3SM BR VCSH OVC003=

USA.gov is the U.S. government's official web portal to all federal, state and local government web resources and services.